Terminal Aerodrome Forecast
Issued by NWS Buffalo, NY

Home | Current Version | Previous Version | Text Only | Print | Product List | Glossary On
Versions: 1 2 3 4 5 6 7 8 9 10 11 12 13 14 15 16 17 18 19 20 21 22 23 24 25 26 27 28 29 30 31
718
FTUS41 KBUF 130129 AAB
TAFROC
TAF AMD
KROC 130129Z 1301/1324 25012KT 4SM -SN SCT025 BKN050
      TEMPO 1302/1304 2SM -SN BKN015
     FM130400 28014G22KT P6SM VCSH BKN025
     FM131000 31015G22KT 4SM -SN BKN015
     FM131500 30016G26KT 2SM -SN BLSN OVC015
     FM132100 30015G25KT 4SM -SHSN BLSN OVC015=

USA.gov is the U.S. government's official web portal to all federal, state and local government web resources and services.